Time;durP1;ratioP1;P1;durP2;ratioP2;P2;SDS_P1;SDS_P2;PMS_P1;PMS_P2;Temp;Humidity;BMP_temperature;BMP_pressure;BME280_temperature;BME280_humidity;BME280_pressure;Samples;Min_cycle;Max_cycle;Signal;HPM_P1;HPM_P2
2022/06/02 00:00:40;;;;;;;1.40;1.20;;;19.60;36.10;;;;;;20535;6837;308466;-84
2022/06/02 00:03:26;;;;;;;1.50;1.40;;;19.90;35.80;;;;;;20547;6837;336563;-86
2022/06/02 00:06:15;;;;;;;1.10;1.10;;;20.20;34.70;;;;;;20819;6831;120135;-84
2022/06/02 00:09:13;;;;;;;1.65;1.55;;;20.10;35.10;;;;;;20576;6840;327340;-85
2022/06/02 00:12:02;;;;;;;1.93;1.20;;;20.20;34.40;;;;;;20785;6835;119883;-84
2022/06/02 00:14:34;;;;;;;2.20;1.40;;;20.00;34.90;;;;;;20597;6835;278470;-86
2022/06/02 00:17:10;;;;;;;1.20;1.20;;;20.10;34.70;;;;;;20595;6835;306640;-84
2022/06/02 00:19:41;;;;;;;2.63;1.50;;;20.10;34.30;;;;;;20795;6835;117142;-84
2022/06/02 00:22:21;;;;;;;2.73;1.30;;;20.10;34.20;;;;;;20565;6836;306580;-87
2022/06/02 00:25:17;;;;;;;1.10;1.10;;;20.20;34.10;;;;;;20835;6831;120915;-85
2022/06/02 00:27:43;;;;;;;1.23;1.23;;;20.00;34.40;;;;;;20775;6836;116385;-84
2022/06/02 00:30:18;;;;;;;1.73;1.30;;;19.60;34.80;;;;;;20586;6836;309035;-85
2022/06/02 00:32:50;;;;;;;1.15;1.15;;;19.70;34.50;;;;;;20615;6829;309013;-84
2022/06/02 00:35:18;;;;;;;1.30;1.20;;;20.00;34.00;;;;;;20802;6836;117332;-85
2022/06/02 00:38:00;;;;;;;1.80;1.23;;;19.80;34.40;;;;;;20598;6830;293535;-85
2022/06/02 00:40:27;;;;;;;1.10;1.10;;;19.80;34.30;;;;;;20555;6839;278776;-84
2022/06/02 00:43:15;;;;;;;1.83;1.30;;;20.10;34.20;;;;;;20596;6835;307177;-84
2022/06/02 00:45:42;;;;;;;1.27;1.17;;;20.30;33.80;;;;;;20613;6835;280096;-85
2022/06/02 00:48:22;;;;;;;1.30;1.20;;;20.30;33.70;;;;;;20801;6836;120178;-84
2022/06/02 00:51:03;;;;;;;1.30;1.20;;;19.90;34.00;;;;;;20196;6839;338870;-84
2022/06/02 00:53:42;;;;;;;3.37;1.47;;;19.90;34.30;;;;;;20800;6836;121703;-84
2022/06/02 00:59:29;;;;;;;1.80;1.13;;;19.20;34.90;;;;;;20808;6836;117176;-84
2022/06/02 01:01:55;;;;;;;2.20;1.40;;;18.90;35.50;;;;;;20582;6839;307604;-85
2022/06/02 01:04:21;;;;;;;1.30;1.20;;;19.00;35.40;;;;;;20578;6835;306070;-85
2022/06/02 01:06:50;;;;;;;1.83;1.40;;;19.40;35.20;;;;;;20584;6836;324389;-84
2022/06/02 01:09:32;;;;;;;1.43;1.27;;;19.60;35.50;;;;;;20569;6837;307616;-85
2022/06/02 01:12:30;;;;;;;1.00;1.00;;;19.80;35.20;;;;;;20792;6836;116283;-84
2022/06/02 01:15:12;;;;;;;1.10;1.00;;;19.50;35.30;;;;;;20823;6831;117113;-84
2022/06/02 01:17:45;;;;;;;1.33;1.30;;;19.00;35.80;;;;;;20789;6840;120674;-85
2022/06/02 01:20:30;;;;;;;1.03;1.00;;;18.70;36.30;;;;;;20591;6835;308070;-84
2022/06/02 01:23:21;;;;;;;1.57;1.30;;;18.80;36.60;;;;;;20817;6835;117901;-85
2022/06/02 01:26:20;;;;;;;1.47;1.30;;;18.70;36.50;;;;;;20580;6835;309693;-85
2022/06/02 01:28:59;;;;;;;1.33;1.23;;;18.80;36.50;;;;;;20609;6835;303122;-85
2022/06/02 01:31:32;;;;;;;1.20;1.10;;;19.10;35.50;;;;;;20571;6835;308751;-84
2022/06/02 01:34:03;;;;;;;1.30;1.20;;;19.30;35.40;;;;;;20590;6835;308784;-84
2022/06/02 01:36:58;;;;;;;1.27;1.20;;;19.40;35.10;;;;;;20721;6836;120201;-85
2022/06/02 01:39:58;;;;;;;1.03;1.03;;;19.20;36.80;;;;;;20599;6831;306800;-84
2022/06/02 01:42:44;;;;;;;1.30;1.20;;;19.10;36.00;;;;;;20788;6835;117730;-85
2022/06/02 01:45:37;;;;;;;1.13;1.03;;;18.80;36.10;;;;;;20832;6839;116524;-84
2022/06/02 01:48:23;;;;;;;1.30;1.20;;;18.40;36.40;;;;;;20358;6835;118155;-85
2022/06/02 01:51:08;;;;;;;1.40;1.20;;;18.20;36.90;;;;;;20607;6835;304790;-85
2022/06/02 01:53:46;;;;;;;1.17;1.13;;;18.30;36.80;;;;;;20794;6835;116160;-85
2022/06/02 01:56:26;;;;;;;1.40;1.30;;;18.30;36.30;;;;;;20828;6836;119802;-84
2022/06/02 01:59:15;;;;;;;1.27;1.17;;;18.00;37.20;;;;;;20621;6831;306880;-85
2022/06/02 02:01:41;;;;;;;1.42;1.10;;;18.20;37.80;;;;;;20610;6836;342271;-86
2022/06/02 02:04:16;;;;;;;1.80;1.10;;;18.50;37.40;;;;;;20784;6839;118371;-84
2022/06/02 02:06:48;;;;;;;1.40;1.30;;;18.40;37.30;;;;;;20183;6835;117402;-85
2022/06/02 02:09:23;;;;;;;1.83;1.13;;;18.00;37.50;;;;;;20586;6835;307471;-86
2022/06/02 02:11:52;;;;;;;1.10;1.10;;;18.10;37.80;;;;;;20709;6835;118838;-84
2022/06/02 02:14:31;;;;;;;1.23;1.10;;;18.00;37.70;;;;;;20784;6836;117801;-85
2022/06/02 02:17:20;;;;;;;1.00;1.00;;;17.60;38.50;;;;;;20813;6831;120295;-88
2022/06/02 02:20:07;;;;;;;1.20;1.17;;;17.90;39.00;;;;;;20598;6836;308415;-84
2022/06/02 02:23:05;;;;;;;1.10;1.10;;;17.90;39.00;;;;;;20794;6837;127644;-86
2022/06/02 02:25:41;;;;;;;1.60;1.20;;;17.80;38.40;;;;;;20821;6837;120175;-85
2022/06/02 02:28:27;;;;;;;1.15;1.15;;;17.60;38.60;;;;;;20608;6831;306170;-86
2022/06/02 02:31:09;;;;;;;2.92;1.20;;;17.80;38.90;;;;;;20607;6836;309320;-84
2022/06/02 02:33:58;;;;;;;1.50;1.40;;;18.20;38.20;;;;;;20574;6836;117169;-84
2022/06/02 02:37:03;;;;;;;1.63;1.40;;;18.10;38.00;;;;;;20559;6836;291638;-84
2022/06/02 02:39:30;;;;;;;1.58;1.20;;;18.60;38.50;;;;;;20606;6836;277232;-84
2022/06/02 02:41:59;;;;;;;1.43;1.30;;;18.50;38.40;;;;;;20567;6836;277826;-84
2022/06/02 02:44:25;;;;;;;2.10;1.30;;;18.90;36.20;;;;;;20567;6836;309549;-84
2022/06/02 02:46:57;;;;;;;1.40;1.30;;;18.90;36.20;;;;;;20583;6836;307008;-84
2022/06/02 02:49:39;;;;;;;1.50;1.10;;;18.90;36.40;;;;;;20593;6836;277992;-84
2022/06/02 02:52:06;;;;;;;1.40;1.30;;;19.00;36.10;;;;;;20566;6836;304652;-86
2022/06/02 02:54:58;;;;;;;2.33;1.07;;;19.10;35.30;;;;;;20410;6835;119276;-84
2022/06/02 02:57:31;;;;;;;1.00;1.00;;;18.80;36.00;;;;;;20794;6830;117291;-85
2022/06/02 03:00:09;;;;;;;1.27;1.20;;;18.00;37.40;;;;;;20804;6836;118239;-85
2022/06/02 03:02:58;;;;;;;1.30;1.20;;;18.00;37.40;;;;;;20552;6839;308119;-84
2022/06/02 03:05:39;;;;;;;1.27;1.17;;;18.20;37.80;;;;;;20565;6835;279950;-84
2022/06/02 03:08:05;;;;;;;1.20;1.10;;;18.50;37.70;;;;;;20815;6835;116805;-84
2022/06/02 03:10:31;;;;;;;1.77;1.40;;;18.30;37.50;;;;;;20783;6835;118983;-85
2022/06/02 03:13:12;;;;;;;1.40;1.30;;;18.00;37.70;;;;;;20601;6836;307914;-84
2022/06/02 03:15:45;;;;;;;1.40;1.30;;;18.10;38.20;;;;;;20647;6831;279026;-84
2022/06/02 03:18:16;;;;;;;1.50;1.40;;;18.40;37.60;;;;;;20609;6836;306832;-83
2022/06/02 03:21:03;;;;;;;1.65;1.55;;;18.60;37.00;;;;;;20589;6839;306064;-87
2022/06/02 03:23:58;;;;;;;7.87;7.28;;;18.70;36.80;;;;;;20608;6835;278663;-86
2022/06/02 03:26:44;;;;;;;3.70;3.40;;;18.80;35.70;;;;;;20805;6835;121542;-84
2022/06/02 03:29:34;;;;;;;1.70;1.50;;;18.40;36.20;;;;;;20612;6835;276461;-83
2022/06/02 03:32:23;;;;;;;1.43;1.23;;;18.40;36.60;;;;;;20832;6835;120494;-84
2022/06/02 03:34:58;;;;;;;1.40;1.30;;;18.20;36.70;;;;;;20797;6835;124073;-82
2022/06/02 03:37:33;;;;;;;2.45;1.50;;;17.80;37.20;;;;;;20467;6835;307219;-83
2022/06/02 03:40:10;;;;;;;1.50;1.40;;;17.90;37.80;;;;;;20782;6835;120635;-84
2022/06/02 03:42:39;;;;;;;1.50;1.40;;;17.90;37.90;;;;;;20737;6835;118020;-84
2022/06/02 03:45:11;;;;;;;1.50;1.40;;;17.70;38.30;;;;;;20790;6835;123336;-83
2022/06/02 03:48:07;;;;;;;1.60;1.50;;;17.40;38.70;;;;;;20761;6835;120619;-85
2022/06/02 03:50:52;;;;;;;1.50;1.40;;;17.30;38.50;;;;;;20552;6835;307974;-82
2022/06/02 03:53:19;;;;;;;1.63;1.53;;;17.70;37.90;;;;;;20764;6835;117682;-84
2022/06/02 03:55:55;;;;;;;1.40;1.30;;;17.70;37.90;;;;;;20599;6835;116925;-83
2022/06/02 03:58:24;;;;;;;1.58;1.48;;;17.50;38.00;;;;;;20418;6836;335715;-84
2022/06/02 04:00:54;;;;;;;1.57;1.47;;;17.80;37.90;;;;;;20588;6831;307350;-86
2022/06/02 04:03:33;;;;;;;3.40;1.80;;;18.10;37.40;;;;;;20770;6836;117209;-81
2022/06/02 04:05:58;;;;;;;3.97;3.53;;;18.00;37.20;;;;;;19891;6838;280354;-81
2022/06/02 04:08:44;;;;;;;3.15;2.47;;;18.20;36.80;;;;;;20759;6834;119765;-82
2022/06/02 04:11:19;;;;;;;2.07;1.57;;;18.00;37.10;;;;;;20355;6835;117114;-82
2022/06/02 04:14:04;;;;;;;1.70;1.33;;;17.80;37.80;;;;;;20790;6835;117368;-82
2022/06/02 04:16:39;;;;;;;2.00;1.43;;;17.60;38.20;;;;;;20559;6835;310622;-81
2022/06/02 04:22:24;;;;;;;2.37;1.70;;;17.90;38.50;;;;;;20580;6831;306613;-81
2022/06/02 04:25:16;;;;;;;3.53;1.80;;;18.20;38.40;;;;;;20787;6836;117305;-81
2022/06/02 04:27:55;;;;;;;1.80;1.70;;;18.10;38.20;;;;;;20551;6839;310078;-81
2022/06/02 04:30:28;;;;;;;1.70;1.60;;;18.40;38.20;;;;;;20766;6835;119584;-82
2022/06/02 04:33:00;;;;;;;1.47;1.37;;;18.20;38.10;;;;;;20793;6835;121461;-81
2022/06/02 04:35:36;;;;;;;1.80;1.70;;;18.10;38.60;;;;;;20556;6835;280311;-82
2022/06/02 04:38:34;;;;;;;1.47;1.47;;;18.30;38.70;;;;;;20755;6835;117044;-84
2022/06/02 04:41:16;;;;;;;1.90;1.80;;;18.50;38.80;;;;;;19766;6835;289764;-82
2022/06/02 04:44:02;;;;;;;1.70;1.60;;;18.50;38.40;;;;;;20759;6835;117102;-82
2022/06/02 04:46:57;;;;;;;1.70;1.60;;;18.50;38.30;;;;;;20781;6835;119909;-82
2022/06/02 04:49:44;;;;;;;1.90;1.70;;;18.30;38.40;;;;;;20795;6835;117181;-81
2022/06/02 04:52:15;;;;;;;2.17;1.93;;;18.40;37.80;;;;;;20535;6835;307167;-84
2022/06/02 04:54:40;;;;;;;1.83;1.73;;;18.50;37.90;;;;;;20746;6836;119475;-82
2022/06/02 04:57:16;;;;;;;2.40;2.00;;;18.50;37.80;;;;;;20584;6831;325211;-83
2022/06/02 04:59:55;;;;;;;2.40;1.60;;;18.70;37.90;;;;;;20766;6836;116645;-85
2022/06/02 05:02:45;;;;;;;2.00;1.90;;;18.80;39.50;;;;;;20541;6840;337480;-81
2022/06/02 05:05:51;;;;;;;2.00;1.90;;;18.80;39.50;;;;;;20782;6835;117313;-83
2022/06/02 05:08:39;;;;;;;1.97;1.87;;;18.70;39.40;;;;;;20554;6835;307156;-83
2022/06/02 05:11:05;;;;;;;2.00;1.70;;;18.70;38.90;;;;;;20783;6835;117191;-79
2022/06/02 05:13:37;;;;;;;2.13;2.00;;;18.70;38.40;;;;;;20546;6836;307643;-82
2022/06/02 05:16:19;;;;;;;2.27;1.93;;;18.80;40.30;;;;;;20717;6840;121013;-80
2022/06/02 05:19:05;;;;;;;2.57;1.70;;;18.70;39.70;;;;;;20543;6838;278068;-82
2022/06/02 05:21:50;;;;;;;1.90;1.80;;;18.80;37.90;;;;;;20775;6835;117033;-81
2022/06/02 05:24:39;;;;;;;2.37;2.17;;;18.60;38.10;;;;;;20568;6835;279953;-83
2022/06/02 05:27:22;;;;;;;2.17;1.97;;;18.70;37.80;;;;;;20571;6836;298555;-82
2022/06/02 05:30:08;;;;;;;2.97;2.20;;;19.00;37.60;;;;;;20561;6836;338646;-80
2022/06/02 05:33:13;;;;;;;2.50;1.80;;;19.00;37.60;;;;;;20725;6836;120002;-81
2022/06/02 05:35:45;;;;;;;2.40;1.60;;;18.70;37.50;;;;;;20782;6831;119427;-81
2022/06/02 05:38:24;;;;;;;1.97;1.77;;;18.30;38.10;;;;;;20052;6836;119079;-81
2022/06/02 05:41:13;;;;;;;1.90;1.80;;;18.20;38.40;;;;;;20749;6839;117484;-83
2022/06/02 05:44:02;;;;;;;2.00;1.90;;;18.10;38.60;;;;;;20790;6835;117982;-82
2022/06/02 05:46:47;;;;;;;2.07;1.90;;;18.10;38.70;;;;;;20534;6835;307952;-82
2022/06/02 05:49:20;;;;;;;1.63;1.53;;;18.50;37.50;;;;;;20770;6835;120025;-81
2022/06/02 05:51:52;;;;;;;2.00;1.70;;;18.60;37.30;;;;;;20764;6835;118312;-82
2022/06/02 05:54:25;;;;;;;2.07;1.80;;;18.50;37.30;;;;;;20505;6835;308591;-82
2022/06/02 05:56:53;;;;;;;2.10;2.00;;;18.80;37.50;;;;;;20037;6829;119309;-83
2022/06/02 05:59:42;;;;;;;2.37;2.17;;;18.90;37.20;;;;;;20538;6836;338957;-82
2022/06/02 06:02:34;;;;;;;2.37;1.90;;;19.50;36.50;;;;;;20562;6837;310250;-81
2022/06/02 06:05:10;;;;;;;2.50;1.80;;;19.60;36.60;;;;;;20804;6831;117151;-81
2022/06/02 06:08:11;;;;;;;1.60;1.50;;;19.60;36.60;;;;;;20740;6836;119922;-81
2022/06/02 06:11:01;;;;;;;1.60;1.50;;;19.50;36.80;;;;;;20748;6836;120186;-82
2022/06/02 06:13:43;;;;;;;2.10;1.87;;;19.50;37.40;;;;;;20798;6831;117210;-83
2022/06/02 06:16:25;;;;;;;2.10;2.00;;;19.90;37.70;;;;;;20536;6836;337276;-87
2022/06/02 06:19:14;;;;;;;2.80;2.07;;;21.20;35.90;;;;;;20768;6836;117431;-83
2022/06/02 06:21:54;;;;;;;2.07;1.97;;;21.50;36.20;;;;;;20778;6831;117279;-82
2022/06/02 06:24:30;;;;;;;2.35;2.15;;;21.50;36.00;;;;;;20549;6836;278439;-82
2022/06/02 06:27:15;;;;;;;2.00;1.80;;;22.40;34.00;;;;;;20724;6840;116389;-81
2022/06/02 06:29:54;;;;;;;2.30;2.10;;;22.90;34.00;;;;;;20580;6833;278400;-82
2022/06/02 06:32:37;;;;;;;1.90;1.80;;;23.70;31.70;;;;;;20711;6834;122270;-82
2022/06/02 06:35:02;;;;;;;1.90;1.80;;;24.00;32.10;;;;;;20736;6835;117074;-83
2022/06/02 06:37:37;;;;;;;6.27;5.93;;;24.20;32.40;;;;;;20749;6835;117313;-82
2022/06/02 06:40:17;;;;;;;2.93;2.33;;;24.50;32.50;;;;;;20763;6835;117405;-83
2022/06/02 06:43:03;;;;;;;2.40;2.10;;;24.40;32.30;;;;;;20532;6836;310270;-82
2022/06/02 06:45:45;;;;;;;2.10;2.00;;;25.10;30.40;;;;;;20799;6831;117203;-83
2022/06/02 06:48:14;;;;;;;3.13;1.90;;;25.50;30.80;;;;;;20769;6836;117481;-83
2022/06/02 06:50:46;;;;;;;2.27;2.07;;;25.60;30.80;;;;;;20515;6839;297600;-84
2022/06/02 06:53:12;;;;;;;2.57;1.90;;;26.10;29.10;;;;;;20573;6835;309032;-85
2022/06/02 06:55:41;;;;;;;1.90;1.60;;;26.80;28.50;;;;;;20548;6835;277561;-85
2022/06/02 06:58:36;;;;;;;3.53;1.87;;;27.30;28.20;;;;;;20791;6835;119766;-86
2022/06/02 07:01:09;;;;;;;2.17;1.70;;;27.30;28.60;;;;;;20757;6835;117505;-84
2022/06/02 07:03:50;;;;;;;1.90;1.80;;;27.10;28.80;;;;;;20567;6836;278865;-85
2022/06/02 07:06:27;;;;;;;1.83;1.73;;;27.30;27.90;;;;;;20782;6831;122277;-87
2022/06/02 07:08:58;;;;;;;1.30;1.30;;;27.30;28.10;;;;;;20784;6836;117158;-84
2022/06/02 07:14:33;;;;;;;180.27;148.20;;;26.80;28.50;;;;;;20584;6836;341166;-84
2022/06/02 07:17:00;;;;;;;2.27;2.07;;;26.90;27.50;;;;;;20605;6831;290371;-87
2022/06/02 07:19:28;;;;;;;1.67;1.57;;;27.00;27.60;;;;;;20778;6836;118500;-85
2022/06/02 07:21:55;;;;;;;2.10;1.90;;;26.90;27.70;;;;;;20581;6836;289679;-85
2022/06/02 07:24:43;;;;;;;1.90;1.70;;;26.90;27.60;;;;;;20701;6831;117164;-84
2022/06/02 07:27:48;;;;;;;2.55;1.90;;;26.70;27.60;;;;;;20543;6836;331631;-83
2022/06/02 07:30:44;;;;;;;1.70;1.60;;;26.60;27.90;;;;;;20596;6831;277965;-84
2022/06/02 07:33:22;;;;;;;2.37;1.77;;;26.60;27.20;;;;;;20581;6836;279509;-86
2022/06/02 07:36:21;;;;;;;1.90;1.80;;;26.30;27.50;;;;;;20765;6836;117583;-85
2022/06/02 07:39:10;;;;;;;1.70;1.57;;;25.40;28.50;;;;;;20813;6831;117840;-84
2022/06/02 07:41:39;;;;;;;1.97;1.87;;;25.40;28.40;;;;;;20577;6835;308353;-83
2022/06/02 07:44:37;;;;;;;1.53;1.40;;;25.40;28.60;;;;;;20847;6821;119799;-83
2022/06/02 07:47:36;;;;;;;2.23;1.90;;;25.30;29.00;;;;;;20635;6821;307425;-85
2022/06/02 07:50:19;;;;;;;1.77;1.67;;;25.50;29.00;;;;;;20845;6821;117065;-85
2022/06/02 07:53:10;;;;;;;1.73;1.63;;;25.40;29.20;;;;;;20401;6821;277568;-83
2022/06/02 07:55:56;;;;;;;1.77;1.67;;;25.60;29.00;;;;;;20849;6821;117105;-83
2022/06/02 07:58:41;;;;;;;1.92;1.80;;;25.50;28.80;;;;;;20601;6821;307062;-84
2022/06/02 08:01:17;;;;;;;1.60;1.50;;;25.50;29.10;;;;;;20842;6821;117877;-83
2022/06/02 08:03:47;;;;;;;1.20;1.20;;;25.30;29.30;;;;;;20823;6821;117191;-83
2022/06/02 08:06:46;;;;;;;1.50;1.40;;;25.30;29.30;;;;;;20852;6821;121012;-87
2022/06/02 08:09:28;;;;;;;2.20;1.90;;;25.20;29.60;;;;;;20843;6821;117051;-84
2022/06/02 08:12:06;;;;;;;1.20;1.20;;;25.10;29.80;;;;;;20849;6821;117592;-85
2022/06/02 08:14:52;;;;;;;1.80;1.70;;;25.10;29.90;;;;;;20623;6821;308382;-84
2022/06/02 08:17:43;;;;;;;1.70;1.60;;;25.60;29.50;;;;;;20639;6821;297802;-85
2022/06/02 08:20:29;;;;;;;1.70;1.60;;;26.20;28.60;;;;;;20811;6822;117461;-84
2022/06/02 08:23:14;;;;;;;1.87;1.77;;;26.20;28.50;;;;;;20856;6822;117750;-83
2022/06/02 08:26:06;;;;;;;1.73;1.63;;;26.00;28.70;;;;;;20621;6822;308182;-84
2022/06/02 08:28:40;;;;;;;2.15;1.30;;;26.10;29.00;;;;;;20616;6822;307885;-84
2022/06/02 08:31:32;;;;;;;2.03;1.43;;;26.70;28.80;;;;;;20860;6822;117017;-85
2022/06/02 08:34:18;;;;;;;1.65;1.55;;;26.80;28.60;;;;;;20623;6822;305510;-85
2022/06/02 08:36:57;;;;;;;1.93;1.83;;;27.00;28.40;;;;;;20610;6822;334793;-86
2022/06/02 08:39:45;;;;;;;1.60;1.50;;;27.40;28.20;;;;;;20566;6836;294182;-83
2022/06/02 08:42:33;;;;;;;2.00;1.60;;;27.70;27.70;;;;;;20578;6837;308450;-82
2022/06/02 08:44:56;;;;;;;1.43;1.33;;;27.80;27.60;;;;;;20581;6831;277125;-81
2022/06/02 08:47:49;;;;;;;2.03;1.87;;;27.70;27.80;;;;;;20559;6836;280396;-84
2022/06/02 08:50:21;;;;;;;3.43;3.13;;;27.80;27.50;;;;;;20583;6837;307690;-88
2022/06/02 08:53:07;;;;;;;1.63;1.53;;;27.50;27.70;;;;;;20821;6829;117248;-84
2022/06/02 08:55:53;;;;;;;1.50;1.40;;;27.50;27.70;;;;;;20771;6839;118546;-85
2022/06/02 08:58:33;;;;;;;1.70;1.60;;;27.10;28.60;;;;;;20473;6835;295455;-82
2022/06/02 09:01:38;;;;;;;2.17;1.30;;;27.20;28.30;;;;;;20753;6835;118089;-82
2022/06/02 09:04:30;;;;;;;2.37;1.60;;;27.10;28.30;;;;;;20797;6835;117892;-85
2022/06/02 09:07:08;;;;;;;1.70;1.60;;;26.90;28.50;;;;;;20788;6835;117349;-85
2022/06/02 09:09:57;;;;;;;1.40;1.40;;;26.90;28.70;;;;;;20577;6835;310287;-84
2022/06/02 09:12:43;;;;;;;2.50;1.40;;;27.10;28.50;;;;;;20758;6835;121333;-83
2022/06/02 09:15:28;;;;;;;3.93;1.40;;;27.20;28.40;;;;;;20784;6835;117275;-82
2022/06/02 09:18:16;;;;;;;2.85;1.42;;;27.60;28.70;;;;;;20566;6835;338776;-81
2022/06/02 09:20:58;;;;;;;2.27;1.97;;;27.50;28.60;;;;;;20765;6835;118146;-84
2022/06/02 09:23:43;;;;;;;1.80;1.70;;;27.70;28.10;;;;;;20562;6835;278047;-82
2022/06/02 09:26:28;;;;;;;3.77;1.50;;;27.80;27.70;;;;;;20769;6835;117472;-81
2022/06/02 09:29:17;;;;;;;4.77;1.50;;;27.80;27.80;;;;;;20798;6835;117354;-86
2022/06/02 09:31:56;;;;;;;2.80;1.60;;;27.60;28.10;;;;;;20580;6835;307797;-86
2022/06/02 09:34:51;;;;;;;2.70;2.10;;;27.90;27.80;;;;;;20742;6835;123047;-83
2022/06/02 09:37:37;;;;;;;2.13;1.70;;;27.90;27.90;;;;;;20575;6835;307592;-83
2022/06/02 09:40:19;;;;;;;14.73;2.43;;;28.10;27.30;;;;;;20796;6835;118467;-82
2022/06/02 09:43:14;;;;;;;2.55;1.60;;;28.00;27.20;;;;;;20570;6836;336123;-84
2022/06/02 09:45:54;;;;;;;7.00;1.80;;;28.30;27.20;;;;;;20590;6831;335646;-84
2022/06/02 09:48:40;;;;;;;1.47;1.37;;;28.20;27.10;;;;;;20694;6837;120063;-83
2022/06/02 09:51:46;;;;;;;5.77;1.90;;;28.20;27.30;;;;;;20782;6837;117886;-84
2022/06/02 09:54:21;;;;;;;1.57;1.40;;;28.00;27.70;;;;;;20585;6831;309461;-82
2022/06/02 10:00:14;;;;;;;1.40;1.20;;;28.30;27.40;;;;;;20574;6837;278070;-81
2022/06/02 10:02:59;;;;;;;1.23;1.23;;;28.40;27.00;;;;;;20481;6837;119425;-84
2022/06/02 10:05:25;;;;;;;1.70;1.60;;;28.30;27.40;;;;;;20765;6835;117217;-86
2022/06/02 10:08:07;;;;;;;4.30;1.60;;;28.00;27.50;;;;;;20753;6836;118881;-86
2022/06/02 10:10:56;;;;;;;1.60;1.50;;;27.90;27.80;;;;;;20574;6830;278106;-83
2022/06/02 10:13:43;;;;;;;1.83;1.60;;;28.00;27.30;;;;;;20555;6836;309777;-91
2022/06/02 10:16:25;;;;;;;2.05;1.77;;;28.30;27.40;;;;;;20557;6839;333476;-82
2022/06/02 10:19:20;;;;;;;1.43;1.43;;;28.50;27.00;;;;;;20750;6835;118448;-85
2022/06/02 10:22:09;;;;;;;2.00;1.90;;;28.30;27.30;;;;;;20783;6835;120230;-84
2022/06/02 10:24:38;;;;;;;2.23;2.03;;;28.10;27.40;;;;;;20552;6835;307618;-85
2022/06/02 10:27:03;;;;;;;1.95;1.75;;;28.20;28.00;;;;;;20542;6835;308957;-85
2022/06/02 10:29:56;;;;;;;1.77;1.67;;;28.40;27.10;;;;;;20566;6836;305190;-86
2022/06/02 10:32:52;;;;;;;2.03;1.90;;;28.50;28.10;;;;;;20723;6831;117183;-85
2022/06/02 10:35:53;;;;;;;1.60;1.60;;;28.40;27.90;;;;;;20785;6836;116674;-83
2022/06/02 10:38:18;;;;;;;2.85;1.60;;;28.10;27.90;;;;;;20554;6839;307907;-84
2022/06/02 10:41:17;;;;;;;2.93;2.00;;;28.10;27.50;;;;;;20786;6835;118061;-83
2022/06/02 10:44:07;;;;;;;2.10;1.60;;;28.10;27.50;;;;;;20578;6835;307537;-84
2022/06/02 10:46:42;;;;;;;1.67;1.58;;;28.10;28.60;;;;;;20561;6835;308858;-86
2022/06/02 10:49:26;;;;;;;3.00;1.80;;;28.40;28.40;;;;;;20597;6835;278094;-85
2022/06/02 10:52:19;;;;;;;1.98;1.73;;;28.60;28.00;;;;;;20534;6835;306901;-85
2022/06/02 10:55:07;;;;;;;2.50;1.55;;;28.70;27.60;;;;;;20598;6835;310405;-85
2022/06/02 10:57:41;;;;;;;1.40;1.40;;;28.70;27.30;;;;;;20805;6835;119354;-84
2022/06/02 11:00:10;;;;;;;1.80;1.70;;;28.50;27.40;;;;;;20795;6836;123711;-86
2022/06/02 11:03:03;;;;;;;1.90;1.80;;;28.30;27.80;;;;;;20811;6831;119806;-82
2022/06/02 11:05:53;;;;;;;2.00;1.70;;;28.10;27.90;;;;;;20801;6836;120298;-85
2022/06/02 11:08:39;;;;;;;1.67;1.57;;;27.80;28.00;;;;;;20735;6840;117746;-85
2022/06/02 11:11:17;;;;;;;1.53;1.40;;;27.60;28.50;;;;;;20578;6835;310199;-84
2022/06/02 11:14:07;;;;;;;2.27;1.70;;;27.70;28.60;;;;;;20580;6836;280858;-87
2022/06/02 11:16:31;;;;;;;1.67;1.57;;;28.00;28.30;;;;;;20785;6829;122325;-87
2022/06/02 11:19:37;;;;;;;1.70;1.60;;;28.00;28.30;;;;;;20557;6836;282811;-81
2022/06/02 11:22:36;;;;;;;4.03;1.77;;;28.10;28.10;;;;;;20567;6839;307076;-86
2022/06/02 11:25:32;;;;;;;1.93;1.83;;;28.30;28.20;;;;;;20781;6835;117614;-84
2022/06/02 11:28:04;;;;;;;1.93;1.63;;;28.20;27.90;;;;;;20784;6835;120010;-84
2022/06/02 11:30:53;;;;;;;1.60;1.50;;;27.90;28.20;;;;;;20033;6835;119188;-84
2022/06/02 11:33:18;;;;;;;3.77;1.70;;;27.60;28.40;;;;;;20779;6835;117283;-84
2022/06/02 11:36:00;;;;;;;5.97;1.93;;;27.40;28.70;;;;;;20403;6835;310799;-83
2022/06/02 11:38:32;;;;;;;3.13;1.90;;;27.50;28.70;;;;;;20783;6835;118079;-84
2022/06/02 11:41:17;;;;;;;2.17;1.53;;;27.40;28.70;;;;;;20585;6835;307609;-85
2022/06/02 11:44:06;;;;;;;5.50;1.80;;;27.50;29.20;;;;;;20579;6835;280431;-85
2022/06/02 11:46:33;;;;;;;4.57;1.73;;;28.20;29.10;;;;;;20553;6835;306669;-84
2022/06/02 11:49:21;;;;;;;3.23;1.93;;;28.20;29.00;;;;;;20742;6836;67868;-84
2022/06/02 11:52:20;;;;;;;1.67;1.43;;;28.40;28.60;;;;;;20787;6831;117454;-83
2022/06/02 11:55:11;;;;;;;1.87;1.73;;;28.30;28.50;;;;;;20568;6836;307647;-83
2022/06/02 11:57:45;;;;;;;1.60;1.50;;;28.50;28.80;;;;;;20588;6840;309542;-86
2022/06/02 12:00:24;;;;;;;2.90;1.57;;;29.00;27.70;;;;;;20469;6835;310343;-84
2022/06/02 12:03:10;;;;;;;1.60;1.50;;;29.00;27.70;;;;;;20373;6835;117985;-88
2022/06/02 12:06:01;;;;;;;1.77;1.57;;;28.90;27.90;;;;;;20756;6836;116369;-85
2022/06/02 12:08:26;;;;;;;2.07;1.70;;;28.60;28.20;;;;;;20591;6831;305494;-86
2022/06/02 12:11:08;;;;;;;1.80;1.67;;;28.60;27.80;;;;;;20794;6836;117607;-86
2022/06/02 12:13:34;;;;;;;1.93;1.67;;;28.50;28.00;;;;;;20791;6840;117377;-88
2022/06/02 12:16:19;;;;;;;1.60;1.50;;;28.30;28.30;;;;;;20795;6835;117216;-84
2022/06/02 12:19:04;;;;;;;1.50;1.40;;;28.20;28.40;;;;;;19529;7193;351721;-88
2022/06/02 12:21:59;;;;;;;4.20;1.90;;;28.30;28.50;;;;;;20419;6836;117157;-87
2022/06/02 12:24:49;;;;;;;2.67;1.53;;;28.10;28.40;;;;;;20788;6831;120290;-87
2022/06/02 12:27:39;;;;;;;3.33;3.00;;;28.10;28.40;;;;;;20801;6835;120099;-86
2022/06/02 12:30:24;;;;;;;1.30;1.30;;;27.90;28.40;;;;;;20772;6839;117020;-90
2022/06/02 12:33:17;;;;;;;1.80;1.70;;;27.80;28.80;;;;;;20555;6835;293938;-84
2022/06/02 12:35:59;;;;;;;5.90;1.63;;;28.00;28.60;;;;;;20756;6836;120310;-84
2022/06/02 12:38:48;;;;;;;1.60;1.50;;;28.10;28.70;;;;;;20774;6831;146884;-87
2022/06/02 12:41:39;;;;;;;1.90;1.50;;;28.00;29.00;;;;;;20794;6836;116650;-84
2022/06/02 12:44:25;;;;;;;4.00;1.90;;;28.00;29.10;;;;;;20779;6839;116545;-83
2022/06/02 12:47:07;;;;;;;2.17;1.50;;;27.90;29.00;;;;;;20543;6835;327339;-84
2022/06/02 12:50:09;;;;;;;1.47;1.43;;;28.20;28.40;;;;;;20769;6836;119995;-86
2022/06/02 12:53:00;;;;;;;1.87;1.60;;;28.20;28.40;;;;;;20583;6831;307483;-86
2022/06/02 12:55:35;;;;;;;1.33;1.33;;;28.40;28.40;;;;;;20580;6836;308369;-84
2022/06/02 12:58:27;;;;;;;1.47;1.10;;;28.60;28.50;;;;;;20778;6839;119835;-81
2022/06/02 13:00:56;;;;;;;1.80;1.63;;;28.60;28.40;;;;;;19495;7196;329873;-84
2022/06/02 13:03:40;;;;;;;1.93;1.50;;;28.50;27.60;;;;;;20245;6835;117732;-84
2022/06/02 13:06:12;;;;;;;1.60;1.50;;;28.40;28.00;;;;;;20750;6835;116196;-81
2022/06/02 13:08:50;;;;;;;1.87;1.70;;;28.10;28.50;;;;;;20441;6835;279325;-81
2022/06/02 13:11:42;;;;;;;2.30;1.60;;;28.20;29.10;;;;;;20585;6835;277946;-82
2022/06/02 13:14:21;;;;;;;2.10;1.90;;;28.50;29.20;;;;;;20575;6835;308017;-83
2022/06/02 13:17:07;;;;;;;1.70;1.60;;;28.70;28.40;;;;;;20550;6835;292374;-83
2022/06/02 13:20:13;;;;;;;1.80;1.67;;;28.90;28.80;;;;;;20578;6835;279890;-83
2022/06/02 13:23:11;;;;;;;2.20;1.50;;;28.90;28.30;;;;;;20558;6835;336638;-83
2022/06/02 13:25:57;;;;;;;1.80;1.63;;;29.00;28.30;;;;;;20791;6835;117593;-83
2022/06/02 13:28:22;;;;;;;1.87;1.65;;;28.80;28.30;;;;;;20566;6835;337900;-86
2022/06/02 13:30:57;;;;;;;1.53;1.43;;;28.70;27.70;;;;;;20794;6835;116945;-84
2022/06/02 13:33:49;;;;;;;4.33;2.20;;;28.50;28.00;;;;;;20308;6835;307791;-86
2022/06/02 13:36:31;;;;;;;1.63;1.53;;;28.40;28.60;;;;;;20756;6836;118362;-83
2022/06/02 13:39:19;;;;;;;2.57;1.60;;;28.30;28.70;;;;;;20575;6829;278081;-87
2022/06/02 13:42:22;;;;;;;2.50;1.70;;;28.50;28.00;;;;;;20575;6836;337363;-86
2022/06/02 13:45:14;;;;;;;2.27;1.50;;;28.50;27.80;;;;;;20563;6839;293421;-85
2022/06/02 13:48:02;;;;;;;2.50;1.70;;;28.70;28.40;;;;;;20798;6835;118077;-87
2022/06/02 13:50:53;;;;;;;1.90;1.70;;;28.50;28.40;;;;;;20776;6835;117380;-88
2022/06/02 13:53:21;;;;;;;2.30;1.80;;;28.10;28.60;;;;;;20001;6835;308901;-85
2022/06/02 13:59:01;;;;;;;2.03;1.70;;;28.10;28.50;;;;;;20818;6831;119479;-84
2022/06/02 14:01:36;;;;;;;1.70;1.50;;;27.80;28.90;;;;;;20582;6836;278468;-84
2022/06/02 14:04:42;;;;;;;1.80;1.70;;;27.90;29.00;;;;;;20580;6839;305185;-85
2022/06/02 14:07:37;;;;;;;2.40;1.83;;;28.00;28.80;;;;;;20595;6835;308046;-83